Time;durP1;ratioP1;P1;durP2;ratioP2;P2;SDS_P1;SDS_P2;PMS_P1;PMS_P2;Temp;Humidity;BMP_temperature;BMP_pressure;BME280_temperature;BME280_humidity;BME280_pressure;Samples;Min_cycle;Max_cycle;Signal;HPM_P1;HPM_P2
2023/06/27 00:00:15;;;;;;;;;;;16.90;99.90;;;;;;8298291;28;19910;-83
2023/06/27 00:04:15;;;;;;;;;;;15.60;99.90;;;;;;8295145;28;20098;-83
2023/06/27 00:08:16;;;;;;;;;;;16.00;99.90;;;;;;8291383;28;19940;-83
2023/06/27 00:12:18;;;;;;;;;;;15.40;99.90;;;;;;8299064;28;20321;-83
2023/06/27 00:16:19;;;;;;;;;;;15.00;99.90;;;;;;8293364;28;20469;-83
2023/06/27 00:20:19;;;;;;;;;;;14.90;99.90;;;;;;8292334;28;19997;-83
2023/06/27 00:24:20;;;;;;;;;;;14.90;99.90;;;;;;8297275;28;19925;-83
2023/06/27 00:28:21;;;;;;;;;;;15.00;99.90;;;;;;8302716;28;19972;-83
2023/06/27 00:32:21;;;;;;;;;;;15.30;99.90;;;;;;8332968;28;19909;-83
2023/06/27 00:36:21;;;;;;;;;;;14.90;99.90;;;;;;8298600;28;19909;-83
2023/06/27 00:40:22;;;;;;;;;;;14.60;99.90;;;;;;8303712;28;20001;-82
2023/06/27 00:44:22;;;;;;;;;;;14.40;99.90;;;;;;8303893;28;19936;-82
2023/06/27 00:48:23;;;;;;;;;;;14.40;99.90;;;;;;8305958;28;20263;-83
2023/06/27 00:52:23;;;;;;;;;;;14.20;99.90;;;;;;8302203;28;20305;-82
2023/06/27 00:56:26;;;;;;;;;;;14.20;99.90;;;;;;8302362;28;19910;-83
2023/06/27 01:00:27;;;;;;;;;;;14.00;99.90;;;;;;8299892;28;19941;-82
2023/06/27 01:04:27;;;;;;;;;;;14.10;99.90;;;;;;8301948;28;19917;-82
2023/06/27 01:08:36;;;;;;;;;;;14.20;99.90;;;;;;8301965;28;19909;-83
2023/06/27 01:12:51;;;;;;;;;;;13.90;99.90;;;;;;8298037;28;20020;-82
2023/06/27 01:16:51;;;;;;;;;;;13.70;99.90;;;;;;8329663;28;19909;-82
2023/06/27 01:20:52;;;;;;;;;;;13.80;99.90;;;;;;8302431;28;19972;-82
2023/06/27 01:24:52;;;;;;;;;;;14.20;99.90;;;;;;8302509;28;19914;-83
2023/06/27 01:28:53;;;;;;;;;;;14.80;99.90;;;;;;8302435;28;20105;-83
2023/06/27 01:33:01;;;;;;;;;;;14.10;99.90;;;;;;8301504;28;19960;-83
2023/06/27 01:37:07;;;;;;;;;;;14.20;99.90;;;;;;8296360;28;20329;-83
2023/06/27 01:41:09;;;;;;;;;;;14.20;99.90;;;;;;8295158;28;19961;-83
2023/06/27 01:45:11;;;;;;;;;;;14.00;99.90;;;;;;8301449;28;19914;-83
2023/06/27 01:49:12;;;;;;;;;;;14.10;99.90;;;;;;8301495;28;20001;-83
2023/06/27 01:53:13;;;;;;;;;;;14.90;99.90;;;;;;8300410;28;19917;-83
2023/06/27 01:57:13;;;;;;;;;;;14.70;99.90;;;;;;8298842;28;19910;-83
2023/06/27 02:01:14;;;;;;;;;;;15.00;99.90;;;;;;8299782;28;19909;-83
2023/06/27 02:05:14;;;;;;;;;;;14.60;99.90;;;;;;8296493;28;20083;-83
2023/06/27 02:09:15;;;;;;;;;;;14.40;99.90;;;;;;8301593;28;19909;-83
2023/06/27 02:13:15;;;;;;;;;;;14.80;99.90;;;;;;8303834;28;19968;-83
2023/06/27 02:17:16;;;;;;;;;;;15.90;99.90;;;;;;8302174;28;19921;-83
2023/06/27 02:21:17;;;;;;;;;;;14.70;99.90;;;;;;8302347;28;20366;-83
2023/06/27 02:25:17;;;;;;;;;;;14.40;99.90;;;;;;8300280;28;19987;-83
2023/06/27 02:29:18;;;;;;;;;;;14.80;99.90;;;;;;8301952;28;19917;-83
2023/06/27 02:33:18;;;;;;;;;;;14.40;99.90;;;;;;8295895;28;19963;-83
2023/06/27 02:37:18;;;;;;;;;;;14.30;99.90;;;;;;8299552;28;19943;-83
2023/06/27 02:41:19;;;;;;;;;;;14.20;99.90;;;;;;8300440;28;19917;-83
2023/06/27 02:45:19;;;;;;;;;;;14.30;99.90;;;;;;8299327;28;19918;-83
2023/06/27 02:49:20;;;;;;;;;;;15.20;99.90;;;;;;8297457;28;19916;-83
2023/06/27 02:53:20;;;;;;;;;;;13.80;99.90;;;;;;8293727;28;19913;-83
2023/06/27 02:57:21;;;;;;;;;;;13.80;99.90;;;;;;8296637;28;19913;-82
2023/06/27 03:01:21;;;;;;;;;;;13.70;99.90;;;;;;8292383;28;19989;-82
2023/06/27 03:05:22;;;;;;;;;;;14.00;99.90;;;;;;8297740;28;19914;-83
2023/06/27 03:09:22;;;;;;;;;;;14.20;99.90;;;;;;8298366;28;20405;-83
2023/06/27 03:13:23;;;;;;;;;;;14.70;99.90;;;;;;8299491;28;19918;-81
2023/06/27 03:17:23;;;;;;;;;;;13.80;99.90;;;;;;8299292;28;19916;-82
2023/06/27 03:21:24;;;;;;;;;;;13.90;99.90;;;;;;8317056;22;19937;-77
2023/06/27 03:25:24;;;;;;;;;;;13.90;99.90;;;;;;8350726;28;19921;-77
2023/06/27 03:29:25;;;;;;;;;;;14.00;99.90;;;;;;8356995;28;19958;-77
2023/06/27 03:33:25;;;;;;;;;;;14.30;99.90;;;;;;8327980;28;20492;-77
2023/06/27 03:37:26;;;;;;;;;;;14.40;99.90;;;;;;8335474;28;19913;-77
2023/06/27 03:41:26;;;;;;;;;;;14.20;99.90;;;;;;8337819;28;19913;-77
2023/06/27 03:45:27;;;;;;;;;;;14.20;99.90;;;;;;8338561;28;19917;-77
2023/06/27 03:49:28;;;;;;;;;;;14.10;99.90;;;;;;8332043;28;19917;-77
2023/06/27 03:53:28;;;;;;;;;;;14.40;99.90;;;;;;8352192;28;19917;-77
2023/06/27 03:57:28;;;;;;;;;;;14.40;99.90;;;;;;8350512;28;19920;-77
2023/06/27 04:01:29;;;;;;;;;;;14.30;99.90;;;;;;8334942;28;19913;-77
2023/06/27 04:05:29;;;;;;;;;;;14.30;99.90;;;;;;8341060;28;20381;-77
2023/06/27 04:09:30;;;;;;;;;;;14.50;99.90;;;;;;8351150;28;19909;-77
2023/06/27 04:13:30;;;;;;;;;;;14.80;99.90;;;;;;8355278;28;19913;-77
2023/06/27 04:17:31;;;;;;;;;;;14.80;99.90;;;;;;8334501;28;19913;-77
2023/06/27 04:21:31;;;;;;;;;;;15.40;99.90;;;;;;8339164;28;19917;-77
2023/06/27 04:25:33;;;;;;;;;;;14.90;99.90;;;;;;8343253;28;20439;-77
2023/06/27 04:29:33;;;;;;;;;;;15.20;99.90;;;;;;8341524;28;19972;-82
2023/06/27 04:33:39;;;;;;;;;;;15.70;99.90;;;;;;8353997;28;20446;-83
2023/06/27 04:37:39;;;;;;;;;;;16.30;99.90;;;;;;8360294;28;19984;-82
2023/06/27 04:41:40;;;;;;;;;;;16.90;99.90;;;;;;8361518;28;19932;-82
2023/06/27 04:45:40;;;;;;;;;;;16.20;99.90;;;;;;8345162;28;19928;-81
2023/06/27 04:49:41;;;;;;;;;;;16.30;99.90;;;;;;8347329;28;19921;-81
2023/06/27 04:53:41;;;;;;;;;;;16.50;99.90;;;;;;8342945;28;20009;-83
2023/06/27 04:57:45;;;;;;;;;;;16.50;99.90;;;;;;8340517;28;20052;-82
2023/06/27 05:01:45;;;;;;;;;;;16.10;99.90;;;;;;8389418;22;19925;-81
2023/06/27 05:05:49;;;;;;;;;;;16.30;99.90;;;;;;8369305;28;19928;-81
2023/06/27 05:09:49;;;;;;;;;;;16.90;99.90;;;;;;8341824;28;19912;-81
2023/06/27 05:14:01;;;;;;;;;;;16.80;99.90;;;;;;8358743;28;19944;-82
2023/06/27 05:18:08;;;;;;;;;;;17.80;99.90;;;;;;8339946;28;19912;-83
2023/06/27 05:22:08;;;;;;;;;;;16.90;99.90;;;;;;8339682;28;20335;-83
2023/06/27 05:26:09;;;;;;;;;;;15.60;99.90;;;;;;8355939;28;19984;-83
2023/06/27 05:30:10;;;;;;;;;;;17.10;99.90;;;;;;8329379;28;20008;-84
2023/06/27 05:34:15;;;;;;;;;;;17.30;99.90;;;;;;8342016;28;19913;-77
2023/06/27 05:38:15;;;;;;;;;;;17.50;99.90;;;;;;8335615;28;19920;-78
2023/06/27 05:42:16;;;;;;;;;;;18.00;99.90;;;;;;8339366;28;19920;-79
2023/06/27 05:46:16;;;;;;;;;;;18.20;99.90;;;;;;8340413;28;19935;-78
2023/06/27 05:50:17;;;;;;;;;;;17.70;99.90;;;;;;8337549;28;19908;-78
2023/06/27 05:54:46;;;;;;;;;;;16.90;99.90;;;;;;8335290;28;19958;-82
2023/06/27 05:58:53;;;;;;;;;;;17.90;99.90;;;;;;8355594;28;19992;-82
2023/06/27 06:02:56;;;;;;;;;;;17.20;99.90;;;;;;8374264;23;19931;-83
2023/06/27 06:07:18;;;;;;;;;;;16.80;99.90;;;;;;8401694;28;19912;-83
2023/06/27 06:15:57;;;;;;;;;;;18.10;99.90;;;;;;8391261;28;20375;-83
2023/06/27 06:20:10;;;;;;;;;;;18.30;99.90;;;;;;8415944;28;19908;-83
2023/06/27 06:24:11;;;;;;;;;;;16.90;99.90;;;;;;8416268;28;19920;-82
2023/06/27 06:28:32;;;;;;;;;;;19.10;99.90;;;;;;8402889;28;19939;-82
2023/06/27 06:32:35;;;;;;;;;;;18.40;99.90;;;;;;8420954;28;19916;-81
2023/06/27 06:36:35;;;;;;;;;;;18.50;99.90;;;;;;8411008;28;19908;-82
2023/06/27 06:44:48;;;;;;;;;;;19.40;99.90;;;;;;8425445;22;19925;-81
2023/06/27 06:48:49;;;;;;;;;;;19.70;99.90;;;;;;8342158;28;19992;-81
2023/06/27 06:52:54;;;;;;;;;;;21.00;99.90;;;;;;8336747;28;19920;-82
2023/06/27 06:57:09;;;;;;;;;;;21.40;99.90;;;;;;8337188;28;19909;-82
2023/06/27 07:01:10;;;;;;;;;;;22.10;99.90;;;;;;8338620;28;19948;-83
2023/06/27 07:05:12;;;;;;;;;;;23.00;99.90;;;;;;8334294;28;19924;-84
2023/06/27 07:09:12;;;;;;;;;;;24.00;99.90;;;;;;8335024;28;19917;-84
2023/06/27 07:13:29;;;;;;;;;;;22.90;99.90;;;;;;8346370;28;19916;-82
2023/06/27 07:18:02;;;;;;;;;;;21.90;99.90;;;;;;8337025;28;19974;-82
2023/06/27 07:22:02;;;;;;;;;;;21.80;99.90;;;;;;8333359;28;19912;-84
2023/06/27 07:26:15;;;;;;;;;;;22.40;99.90;;;;;;8340623;28;20749;-82
2023/06/27 07:30:25;;;;;;;;;;;22.90;99.90;;;;;;8337284;28;19975;-82
2023/06/27 07:34:33;;;;;;;;;;;23.70;99.90;;;;;;8336735;28;19923;-83
2023/06/27 07:38:33;;;;;;;;;;;23.80;99.90;;;;;;8333759;28;20440;-82
2023/06/27 07:42:34;;;;;;;;;;;23.80;99.90;;;;;;8356175;28;19916;-82
2023/06/27 07:46:48;;;;;;;;;;;24.40;99.90;;;;;;8327547;28;24123;-85
2023/06/27 07:51:10;;;;;;;;;;;24.10;99.50;;;;;;8334376;28;19912;-82
2023/06/27 07:55:11;;;;;;;;;;;24.80;99.90;;;;;;8323166;28;20413;-83
2023/06/27 07:59:13;;;;;;;;;;;25.00;98.20;;;;;;8353742;28;19924;-82
2023/06/27 08:03:13;;;;;;;;;;;25.20;96.00;;;;;;8345744;28;20466;-83
2023/06/27 08:07:14;;;;;;;;;;;25.40;95.90;;;;;;8329166;28;19913;-81
2023/06/27 08:11:14;;;;;;;;;;;25.00;93.90;;;;;;8392110;22;19929;-84
2023/06/27 08:15:14;;;;;;;;;;;25.40;93.90;;;;;;8344265;28;19924;-84
2023/06/27 08:19:15;;;;;;;;;;;24.70;94.60;;;;;;8333246;28;19917;-81
2023/06/27 08:23:25;;;;;;;;;;;;;;;;;;;;;
2023/06/27 08:27:29;;;;;;;;;;;25.00;92.50;;;;;;8342892;28;20328;-78
2023/06/27 08:31:30;;;;;;;;;;;25.50;94.30;;;;;;8350076;22;20221;-79
2023/06/27 08:35:30;;;;;;;;;;;25.60;92.20;;;;;;8346040;28;20269;-78
2023/06/27 08:39:30;;;;;;;;;;;25.40;91.80;;;;;;8339490;28;19921;-79
2023/06/27 08:43:31;;;;;;;;;;;25.20;91.30;;;;;;8343220;28;20004;-79
2023/06/27 08:47:32;;;;;;;;;;;25.80;90.00;;;;;;8316851;28;19932;-78
2023/06/27 08:51:33;;;;;;;;;;;25.90;91.20;;;;;;8337008;28;19921;-79
2023/06/27 08:55:36;;;;;;;;;;;26.60;91.30;;;;;;8328137;28;20058;-80
2023/06/27 08:59:37;;;;;;;;;;;26.80;88.10;;;;;;8324020;28;19941;-78
2023/06/27 09:03:37;;;;;;;;;;;27.20;86.40;;;;;;8319082;28;19921;-79
2023/06/27 09:07:38;;;;;;;;;;;27.50;85.00;;;;;;8311560;28;19966;-79
2023/06/27 09:11:39;;;;;;;;;;;27.80;83.30;;;;;;8325103;28;19909;-79
2023/06/27 09:15:39;;;;;;;;;;;27.70;77.10;;;;;;8316848;28;19923;-78
2023/06/27 09:19:39;;;;;;;;;;;27.00;82.20;;;;;;8309188;28;19917;-78
2023/06/27 09:23:41;;;;;;;;;;;26.80;80.00;;;;;;8385747;23;19924;-81
2023/06/27 09:27:42;;;;;;;;;;;26.80;82.60;;;;;;8412044;28;19912;-81
2023/06/27 09:31:43;;;;;;;;;;;25.60;84.30;;;;;;8416263;28;20360;-81
2023/06/27 09:35:43;;;;;;;;;;;25.60;87.40;;;;;;8398189;28;19919;-81
2023/06/27 09:39:44;;;;;;;;;;;26.40;89.40;;;;;;8383978;28;19911;-80
2023/06/27 09:43:50;;;;;;;;;;;26.30;86.20;;;;;;8392683;28;19927;-80
2023/06/27 09:47:51;;;;;;;;;;;26.40;79.60;;;;;;8376623;28;19912;-80
2023/06/27 09:51:52;;;;;;;;;;;25.40;83.10;;;;;;8392612;28;19995;-81
2023/06/27 09:55:57;;;;;;;;;;;25.60;88.70;;;;;;8402431;28;20003;-79
2023/06/27 09:59:58;;;;;;;;;;;25.50;85.10;;;;;;8383933;28;19917;-80
2023/06/27 10:03:58;;;;;;;;;;;26.30;80.60;;;;;;8401425;28;19917;-81
2023/06/27 10:07:59;;;;;;;;;;;26.20;83.40;;;;;;8386838;28;19908;-81
2023/06/27 10:11:59;;;;;;;;;;;26.90;80.10;;;;;;8396677;28;19920;-81
2023/06/27 10:16:00;;;;;;;;;;;27.10;78.20;;;;;;8375805;28;19947;-79
2023/06/27 10:20:01;;;;;;;;;;;26.20;77.20;;;;;;8393664;28;19964;-79
2023/06/27 10:24:02;;;;;;;;;;;26.00;82.90;;;;;;8407742;28;19920;-81
2023/06/27 10:28:06;;;;;;;;;;;25.80;79.80;;;;;;8404904;28;19916;-80
2023/06/27 10:32:10;;;;;;;;;;;26.40;76.40;;;;;;8377756;28;19985;-80
2023/06/27 10:36:10;;;;;;;;;;;26.40;79.70;;;;;;8394660;28;19912;-80
2023/06/27 10:40:11;;;;;;;;;;;26.70;77.20;;;;;;8369883;28;19919;-81
2023/06/27 10:44:17;;;;;;;;;;;26.90;74.90;;;;;;8377734;28;19927;-80
2023/06/27 10:48:27;;;;;;;;;;;27.40;74.70;;;;;;8390937;28;19935;-81
2023/06/27 10:52:27;;;;;;;;;;;27.10;77.20;;;;;;8395918;28;20011;-81
2023/06/27 10:56:28;;;;;;;;;;;26.80;81.10;;;;;;8379424;28;19909;-81
2023/06/27 11:00:31;;;;;;;;;;;26.90;77.30;;;;;;8404720;28;19914;-79
2023/06/27 11:04:40;;;;;;;;;;;26.20;74.70;;;;;;8369130;28;19966;-79
2023/06/27 11:08:40;;;;;;;;;;;27.00;75.10;;;;;;8392792;28;19912;-80
2023/06/27 11:12:41;;;;;;;;;;;26.40;78.50;;;;;;8391292;28;19908;-79
2023/06/27 11:16:45;;;;;;;;;;;26.40;75.40;;;;;;8376261;28;20368;-79
2023/06/27 11:20:46;;;;;;;;;;;26.40;73.00;;;;;;8390266;28;19968;-79
2023/06/27 11:24:46;;;;;;;;;;;26.80;75.40;;;;;;8402898;28;19920;-80
2023/06/27 11:28:46;;;;;;;;;;;27.00;69.60;;;;;;8403828;28;19998;-78
2023/06/27 11:32:47;;;;;;;;;;;26.50;74.60;;;;;;8382449;28;20373;-79
2023/06/27 11:36:48;;;;;;;;;;;26.90;71.30;;;;;;8404908;28;19916;-79
2023/06/27 11:40:49;;;;;;;;;;;26.50;75.70;;;;;;8381624;28;19909;-80
2023/06/27 11:44:50;;;;;;;;;;;26.60;73.50;;;;;;8377538;28;20368;-79
2023/06/27 11:48:50;;;;;;;;;;;25.70;76.80;;;;;;8393862;28;19916;-79
2023/06/27 11:52:51;;;;;;;;;;;26.00;78.50;;;;;;8391995;28;19915;-79
2023/06/27 11:56:51;;;;;;;;;;;25.90;75.70;;;;;;8385779;28;19961;-80
2023/06/27 12:00:52;;;;;;;;;;;25.70;72.50;;;;;;8394350;28;19908;-79
2023/06/27 12:04:56;;;;;;;;;;;25.30;76.50;;;;;;8389090;28;19920;-78
2023/06/27 12:08:57;;;;;;;;;;;25.50;79.00;;;;;;8399125;28;19915;-79
2023/06/27 12:12:58;;;;;;;;;;;26.20;74.60;;;;;;8377286;28;19912;-80
2023/06/27 12:17:00;;;;;;;;;;;27.50;70.70;;;;;;8383102;28;19916;-80
2023/06/27 12:21:00;;;;;;;;;;;28.10;67.60;;;;;;8370672;28;19908;-78
2023/06/27 12:25:01;;;;;;;;;;;28.60;68.60;;;;;;8392998;28;20396;-79
2023/06/27 12:29:02;;;;;;;;;;;29.50;65.70;;;;;;8413354;28;19909;-79
2023/06/27 12:33:03;;;;;;;;;;;28.50;66.10;;;;;;8396349;28;19908;-80
2023/06/27 12:37:04;;;;;;;;;;;27.10;68.60;;;;;;8398069;28;20001;-79
2023/06/27 12:41:04;;;;;;;;;;;26.70;73.70;;;;;;8390817;28;19915;-79
2023/06/27 12:45:05;;;;;;;;;;;28.20;67.40;;;;;;8394243;28;20304;-80
2023/06/27 12:49:05;;;;;;;;;;;29.90;65.30;;;;;;8394190;28;19909;-79
2023/06/27 12:53:06;;;;;;;;;;;30.20;59.20;;;;;;8383201;28;19919;-79
2023/06/27 12:57:06;;;;;;;;;;;29.90;61.80;;;;;;8384942;28;19916;-80
2023/06/27 13:01:06;;;;;;;;;;;31.70;58.90;;;;;;8389446;28;20073;-78
2023/06/27 13:05:07;;;;;;;;;;;30.00;58.90;;;;;;8390121;28;19932;-81
2023/06/27 13:09:08;;;;;;;;;;;29.90;60.10;;;;;;8382820;28;19908;-79
2023/06/27 13:13:08;;;;;;;;;;;30.50;58.20;;;;;;8397619;28;19908;-79
2023/06/27 13:17:09;;;;;;;;;;;28.40;61.50;;;;;;8395536;28;19908;-80
2023/06/27 13:21:09;;;;;;;;;;;28.40;62.70;;;;;;8389226;28;20352;-79
2023/06/27 13:25:11;;;;;;;;;;;29.30;64.30;;;;;;8389086;28;19924;-80
2023/06/27 13:29:12;;;;;;;;;;;30.70;58.80;;;;;;8389992;28;19912;-79
2023/06/27 13:33:12;;;;;;;;;;;32.50;57.00;;;;;;8410447;28;20392;-79
2023/06/27 13:37:13;;;;;;;;;;;33.70;54.20;;;;;;8386924;28;19920;-80
2023/06/27 13:41:13;;;;;;;;;;;35.00;53.10;;;;;;8390032;28;19908;-80
2023/06/27 13:45:14;;;;;;;;;;;33.60;52.20;;;;;;8386443;28;19971;-80
2023/06/27 13:49:14;;;;;;;;;;;31.00;54.70;;;;;;8375693;28;19915;-80
2023/06/27 13:53:15;;;;;;;;;;;28.20;61.10;;;;;;8407339;28;20356;-79
2023/06/27 13:57:15;;;;;;;;;;;27.40;65.70;;;;;;8386553;28;20382;-81
2023/06/27 14:01:16;;;;;;;;;;;30.60;60.40;;;;;;8380229;28;19919;-81
2023/06/27 14:05:16;;;;;;;;;;;33.10;54.30;;;;;;8392431;28;20393;-80
2023/06/27 14:09:20;;;;;;;;;;;31.30;53.30;;;;;;8380392;28;19920;-80
2023/06/27 14:13:20;;;;;;;;;;;29.90;59.60;;;;;;8380091;28;19920;-80
2023/06/27 14:17:22;;;;;;;;;;;31.70;55.90;;;;;;8380095;28;20290;-79
2023/06/27 14:21:24;;;;;;;;;;;32.00;53.60;;;;;;8368310;28;20407;-80
2023/06/27 14:25:27;;;;;;;;;;;32.80;55.10;;;;;;8372379;28;20300;-79
2023/06/27 14:29:28;;;;;;;;;;;31.40;54.00;;;;;;8400884;28;20380;-79
2023/06/27 14:33:28;;;;;;;;;;;31.10;53.40;;;;;;8408876;28;19916;-80
2023/06/27 14:37:29;;;;;;;;;;;28.60;56.90;;;;;;8400353;28;19912;-79
2023/06/27 14:41:29;;;;;;;;;;;27.50;63.80;;;;;;8398984;28;19918;-79
2023/06/27 14:45:30;;;;;;;;;;;29.50;57.70;;;;;;8393804;28;19916;-79
2023/06/27 14:49:30;;;;;;;;;;;30.30;54.70;;;;;;8411378;28;20003;-79
2023/06/27 14:53:30;;;;;;;;;;;30.30;55.00;;;;;;8389025;28;20018;-80
2023/06/27 14:57:31;;;;;;;;;;;31.40;51.60;;;;;;8380897;28;19912;-79
2023/06/27 15:01:31;;;;;;;;;;;32.30;52.00;;;;;;8395281;28;19962;-79
2023/06/27 15:05:35;;;;;;;;;;;33.40;50.70;;;;;;8373529;28;19952;-79
2023/06/27 15:09:35;;;;;;;;;;;31.40;49.90;;;;;;8373447;28;19912;-79
2023/06/27 15:13:35;;;;;;;;;;;28.60;55.60;;;;;;8392345;28;19920;-79
2023/06/27 15:17:36;;;;;;;;;;;29.40;58.90;;;;;;8394460;28;20373;-78
2023/06/27 15:21:38;;;;;;;;;;;29.50;56.00;;;;;;8381217;28;19934;-79
2023/06/27 15:25:38;;;;;;;;;;;30.30;51.90;;;;;;8371579;28;19935;-79
2023/06/27 15:29:39;;;;;;;;;;;29.90;55.30;;;;;;8376998;28;20277;-78
2023/06/27 15:33:39;;;;;;;;;;;28.90;56.90;;;;;;8372720;28;20023;-79
2023/06/27 15:37:40;;;;;;;;;;;27.90;59.50;;;;;;8394204;28;19999;-78
2023/06/27 15:41:41;;;;;;;;;;;26.80;59.70;;;;;;8372104;28;20440;-78
2023/06/27 15:45:41;;;;;;;;;;;25.90;59.30;;;;;;8374551;28;20346;-78
2023/06/27 15:49:42;;;;;;;;;;;25.30;62.90;;;;;;8372141;28;20448;-79
2023/06/27 15:53:42;;;;;;;;;;;25.50;62.70;;;;;;8371715;28;20308;-78
2023/06/27 15:57:43;;;;;;;;;;;25.20;61.20;;;;;;8383825;28;19927;-78
2023/06/27 16:01:43;;;;;;;;;;;25.00;62.80;;;;;;8389614;28;19939;-79
2023/06/27 16:05:44;;;;;;;;;;;25.00;65.60;;;;;;8372390;28;19920;-78
2023/06/27 16:09:44;;;;;;;;;;;25.30;62.80;;;;;;8371478;28;20348;-78
2023/06/27 16:13:45;;;;;;;;;;;25.40;66.80;;;;;;8385992;28;19920;-78
2023/06/27 16:17:46;;;;;;;;;;;25.50;64.50;;;;;;8372337;28;19912;-78
2023/06/27 16:21:46;;;;;;;;;;;25.40;67.90;;;;;;8382087;28;19913;-78
2023/06/27 16:25:46;;;;;;;;;;;24.40;71.90;;;;;;8387240;28;20166;-78
2023/06/27 16:29:47;;;;;;;;;;;23.60;72.70;;;;;;8374215;28;19916;-79
2023/06/27 16:33:49;;;;;;;;;;;23.40;75.50;;;;;;8379687;28;19920;-78
2023/06/27 16:37:49;;;;;;;;;;;23.30;75.90;;;;;;8358294;28;19912;-78
2023/06/27 16:41:50;;;;;;;;;;;23.20;75.00;;;;;;8365424;28;20303;-79
2023/06/27 16:45:50;;;;;;;;;;;23.10;74.50;;;;;;8372009;28;19924;-77
2023/06/27 16:49:51;;;;;;;;;;;23.20;75.20;;;;;;8388610;28;19917;-79
2023/06/27 16:53:51;;;;;;;;;;;23.20;74.70;;;;;;8372002;28;19977;-77
2023/06/27 16:57:52;;;;;;;;;;;22.70;77.50;;;;;;8392778;28;19959;-80
2023/06/27 17:01:52;;;;;;;;;;;22.70;78.10;;;;;;8368916;28;19912;-77
2023/06/27 17:05:53;;;;;;;;;;;22.70;78.90;;;;;;8379588;28;19916;-78
2023/06/27 17:09:53;;;;;;;;;;;22.40;79.40;;;;;;8399592;28;20368;-78
2023/06/27 17:13:53;;;;;;;;;;;22.40;81.60;;;;;;8376728;28;19916;-79
2023/06/27 17:17:54;;;;;;;;;;;22.90;78.40;;;;;;8372840;28;19923;-79
2023/06/27 17:21:54;;;;;;;;;;;22.70;80.40;;;;;;8373172;28;19920;-77
2023/06/27 17:25:55;;;;;;;;;;;22.50;82.70;;;;;;8380777;28;19916;-79
2023/06/27 17:29:55;;;;;;;;;;;22.40;81.40;;;;;;8388317;28;19912;-78
2023/06/27 17:33:56;;;;;;;;;;;22.30;82.50;;;;;;8390564;28;19913;-77
2023/06/27 17:37:56;;;;;;;;;;;21.90;81.20;;;;;;8377710;28;20411;-77
2023/06/27 17:41:57;;;;;;;;;;;21.80;82.20;;;;;;8376457;28;21731;-77
2023/06/27 17:45:57;;;;;;;;;;;21.90;82.40;;;;;;8371980;28;19975;-77
2023/06/27 17:49:58;;;;;;;;;;;21.70;82.20;;;;;;8395195;28;19920;-78
2023/06/27 17:53:58;;;;;;;;;;;21.20;83.90;;;;;;8377708;28;20511;-78
2023/06/27 17:57:58;;;;;;;;;;;21.60;84.00;;;;;;8369550;28;19924;-77
2023/06/27 18:01:59;;;;;;;;;;;21.10;84.60;;;;;;8370842;28;19920;-77
2023/06/27 18:06:00;;;;;;;;;;;21.50;85.90;;;;;;8386641;28;19981;-77
2023/06/27 18:10:00;;;;;;;;;;;21.50;85.00;;;;;;8372487;28;19962;-77
2023/06/27 18:14:01;;;;;;;;;;;21.50;85.30;;;;;;8397703;28;20385;-77
2023/06/27 18:18:05;;;;;;;;;;;21.10;86.40;;;;;;8388730;28;19920;-78
2023/06/27 18:22:05;;;;;;;;;;;20.70;88.70;;;;;;8384047;28;19968;-78
2023/06/27 18:26:06;;;;;;;;;;;20.50;87.10;;;;;;8381284;28;19924;-78
2023/06/27 18:30:06;;;;;;;;;;;20.70;88.70;;;;;;8377379;28;20292;-77
2023/06/27 18:34:07;;;;;;;;;;;20.60;87.40;;;;;;8378206;28;19919;-77
2023/06/27 18:38:08;;;;;;;;;;;21.10;87.80;;;;;;8376464;28;19955;-78
2023/06/27 18:42:08;;;;;;;;;;;20.60;89.20;;;;;;8370581;28;19920;-77
2023/06/27 18:46:09;;;;;;;;;;;20.50;87.30;;;;;;8384258;28;19916;-76
2023/06/27 18:50:09;;;;;;;;;;;20.50;87.70;;;;;;8378430;28;19917;-77
2023/06/27 18:54:10;;;;;;;;;;;20.20;89.20;;;;;;8355582;28;19995;-78
2023/06/27 18:58:11;;;;;;;;;;;20.40;90.50;;;;;;8370465;28;19928;-78
2023/06/27 19:02:12;;;;;;;;;;;20.40;92.00;;;;;;8370750;28;20564;-78
2023/06/27 19:06:12;;;;;;;;;;;20.00;91.60;;;;;;8397239;28;19920;-78
2023/06/27 19:10:13;;;;;;;;;;;19.70;91.30;;;;;;8375006;28;19912;-77
2023/06/27 19:14:13;;;;;;;;;;;19.70;91.90;;;;;;8380516;28;19987;-77
2023/06/27 19:18:14;;;;;;;;;;;19.50;91.80;;;;;;8374570;28;19912;-78
2023/06/27 19:22:14;;;;;;;;;;;19.70;92.40;;;;;;8369896;28;19916;-78
2023/06/27 19:26:15;;;;;;;;;;;19.50;92.40;;;;;;8380083;28;19916;-79
2023/06/27 19:30:15;;;;;;;;;;;19.80;93.80;;;;;;8383654;28;19999;-82
2023/06/27 19:34:16;;;;;;;;;;;19.00;92.90;;;;;;8395379;28;19913;-82
2023/06/27 19:38:16;;;;;;;;;;;18.80;94.00;;;;;;8374616;28;19967;-82
2023/06/27 19:42:17;;;;;;;;;;;18.80;94.50;;;;;;8371514;28;19917;-81
2023/06/27 19:46:17;;;;;;;;;;;18.50;95.80;;;;;;8370166;28;20108;-81
2023/06/27 19:50:18;;;;;;;;;;;18.20;97.80;;;;;;8377621;28;19920;-81
2023/06/27 19:54:18;;;;;;;;;;;17.70;98.10;;;;;;8390623;28;19914;-80
2023/06/27 19:58:19;;;;;;;;;;;17.50;99.40;;;;;;8376711;28;19917;-82
2023/06/27 20:02:19;;;;;;;;;;;17.80;99.90;;;;;;8397752;28;19952;-82
2023/06/27 20:06:20;;;;;;;;;;;17.50;99.90;;;;;;8373040;28;19931;-80
2023/06/27 20:10:22;;;;;;;;;;;17.80;99.90;;;;;;8367302;28;19917;-82
2023/06/27 20:14:22;;;;;;;;;;;17.20;99.90;;;;;;8388020;28;21592;-82
2023/06/27 20:18:23;;;;;;;;;;;17.60;98.90;;;;;;8384835;28;19920;-82
2023/06/27 20:22:23;;;;;;;;;;;18.00;98.30;;;;;;8380395;28;19924;-83
2023/06/27 20:26:24;;;;;;;;;;;18.20;97.50;;;;;;8388329;28;19917;-82
2023/06/27 20:30:24;;;;;;;;;;;18.30;97.50;;;;;;8405493;28;19920;-82
2023/06/27 20:34:28;;;;;;;;;;;18.40;97.40;;;;;;8381451;28;19909;-82
2023/06/27 20:38:29;;;;;;;;;;;18.00;97.20;;;;;;8394228;28;19916;-81
2023/06/27 20:42:29;;;;;;;;;;;18.20;96.60;;;;;;8390297;28;19943;-82
2023/06/27 20:46:30;;;;;;;;;;;18.20;96.30;;;;;;8384005;28;19924;-81
2023/06/27 20:50:30;;;;;;;;;;;18.10;96.80;;;;;;8372855;28;19916;-81
2023/06/27 20:54:31;;;;;;;;;;;17.80;97.40;;;;;;8381057;28;19913;-81
2023/06/27 20:58:31;;;;;;;;;;;18.70;99.70;;;;;;8386377;28;19913;-82
2023/06/27 21:02:32;;;;;;;;;;;18.20;99.70;;;;;;8393823;28;19919;-81
2023/06/27 21:06:32;;;;;;;;;;;17.30;99.80;;;;;;8391737;28;19920;-81
2023/06/27 21:10:32;;;;;;;;;;;17.30;99.90;;;;;;8383930;28;19913;-82
2023/06/27 21:14:33;;;;;;;;;;;16.90;99.90;;;;;;8387782;28;19912;-81
2023/06/27 21:18:34;;;;;;;;;;;17.20;99.90;;;;;;8383230;28;19912;-82
2023/06/27 21:22:34;;;;;;;;;;;17.30;99.90;;;;;;8401272;28;19916;-81
2023/06/27 21:26:34;;;;;;;;;;;16.70;99.90;;;;;;8404340;28;19912;-81
2023/06/27 21:30:35;;;;;;;;;;;17.10;99.90;;;;;;8401321;28;19909;-82
2023/06/27 21:34:35;;;;;;;;;;;16.60;99.90;;;;;;8397130;28;19935;-82
2023/06/27 21:38:36;;;;;;;;;;;17.10;99.90;;;;;;8368150;28;19913;-80
2023/06/27 21:42:36;;;;;;;;;;;17.20;99.90;;;;;;8388717;28;19947;-81
2023/06/27 21:46:37;;;;;;;;;;;17.60;99.90;;;;;;8381870;28;19931;-82
2023/06/27 21:50:37;;;;;;;;;;;17.60;99.90;;;;;;8383619;28;19927;-81
2023/06/27 21:54:38;;;;;;;;;;;18.40;99.90;;;;;;8397733;28;19916;-81
2023/06/27 21:58:38;;;;;;;;;;;17.20;99.90;;;;;;8386917;28;19958;-82
2023/06/27 22:02:39;;;;;;;;;;;17.10;99.90;;;;;;8374204;28;19915;-81
2023/06/27 22:06:40;;;;;;;;;;;17.60;99.90;;;;;;8385014;28;19928;-80
2023/06/27 22:10:40;;;;;;;;;;;17.60;99.90;;;;;;8393857;28;20042;-81
2023/06/27 22:14:41;;;;;;;;;;;17.90;99.90;;;;;;8380571;28;19908;-80
2023/06/27 22:18:44;;;;;;;;;;;18.20;99.90;;;;;;8390046;28;20308;-81
2023/06/27 22:22:44;;;;;;;;;;;17.90;99.90;;;;;;8397759;28;20024;-79
2023/06/27 22:26:45;;;;;;;;;;;17.00;99.90;;;;;;8408003;28;19916;-81
2023/06/27 22:30:45;;;;;;;;;;;17.10;99.90;;;;;;8383253;28;20274;-79
2023/06/27 22:34:45;;;;;;;;;;;16.20;99.90;;;;;;8376792;28;20389;-81
2023/06/27 22:38:46;;;;;;;;;;;16.50;99.90;;;;;;8372885;28;20004;-80
2023/06/27 22:42:46;;;;;;;;;;;16.00;99.90;;;;;;8384427;28;19912;-79
2023/06/27 22:46:47;;;;;;;;;;;16.30;99.90;;;;;;8397087;28;19935;-80
2023/06/27 22:50:47;;;;;;;;;;;16.00;99.90;;;;;;8377945;28;20384;-81
2023/06/27 22:54:48;;;;;;;;;;;15.90;99.90;;;;;;8397060;28;19916;-81
2023/06/27 22:58:48;;;;;;;;;;;16.20;99.90;;;;;;8398724;28;19921;-81
2023/06/27 23:02:49;;;;;;;;;;;16.30;99.90;;;;;;8381808;28;19912;-81
2023/06/27 23:06:50;;;;;;;;;;;16.00;99.90;;;;;;8402110;28;19912;-80
2023/06/27 23:10:50;;;;;;;;;;;16.00;99.90;;;;;;8402683;28;19909;-81
2023/06/27 23:14:51;;;;;;;;;;;16.00;99.90;;;;;;8381525;28;20483;-80
2023/06/27 23:18:57;;;;;;;;;;;15.70;99.90;;;;;;8416716;28;20398;-81
2023/06/27 23:22:58;;;;;;;;;;;15.90;99.90;;;;;;8398884;28;19921;-80
2023/06/27 23:26:58;;;;;;;;;;;16.20;99.90;;;;;;8399525;28;19927;-80
2023/06/27 23:30:59;;;;;;;;;;;15.90;99.90;;;;;;8381017;28;20284;-80
2023/06/27 23:34:59;;;;;;;;;;;16.00;99.90;;;;;;8385446;28;20300;-81